createdAt,value
2023-05-09T04:01:10.756Z,98872.72
2023-05-09T04:05:22.478Z,98866.47
2023-05-09T04:09:34.186Z,98863.03
2023-05-09T04:13:45.889Z,98870.09
2023-05-09T04:18:08.404Z,98866.47
2023-05-09T04:22:20.633Z,98869.56
2023-05-09T04:26:32.788Z,98855.19
2023-05-09T04:30:45.683Z,98846.94
2023-05-09T04:34:57.602Z,98850.84
2023-05-09T04:39:14.449Z,98848.44
2023-05-09T04:43:35.326Z,98848.88
2023-05-09T04:47:47.040Z,98838.00
2023-05-09T04:51:58.619Z,98835.78
2023-05-09T04:56:10.957Z,98831.13
2023-05-09T05:00:23.031Z,98836.81
2023-05-09T05:04:34.692Z,98834.47
2023-05-09T05:08:47.197Z,98828.19
2023-05-09T05:12:59.167Z,98830.00
2023-05-09T05:17:10.872Z,98833.28
2023-05-09T05:21:22.734Z,98827.25
2023-05-09T05:25:34.841Z,98826.47
2023-05-09T05:29:47.055Z,98819.63
2023-05-09T05:33:58.713Z,98815.88
2023-05-09T05:38:10.858Z,98805.41
2023-05-09T05:42:23.235Z,98810.59
2023-05-09T05:46:35.465Z,98809.03
2023-05-09T05:50:47.352Z,98813.53
2023-05-09T05:55:01.579Z,98817.19
2023-05-09T05:59:13.700Z,98806.25
2023-05-09T06:03:25.680Z,98803.84
2023-05-09T06:07:55.410Z,98799.78
2023-05-09T06:12:07.268Z,98791.06
2023-05-09T06:16:20.408Z,98793.31
2023-05-09T06:20:36.131Z,98781.13
2023-05-09T06:24:47.640Z,98776.66
2023-05-09T06:28:59.200Z,98766.44
2023-05-09T06:33:10.754Z,98768.81
2023-05-09T06:37:34.119Z,98767.44
2023-05-09T06:42:01.187Z,98768.38
2023-05-09T06:46:16.941Z,98764.22
2023-05-09T06:50:29.758Z,98749.41
2023-05-09T06:54:42.481Z,98749.06
2023-05-09T06:58:54.086Z,98754.97
2023-05-09T07:03:07.421Z,98750.75
2023-05-09T07:07:19.133Z,98753.91
2023-05-09T07:11:37.016Z,98745.66
2023-05-09T07:15:48.515Z,98746.22
2023-05-09T07:20:00.101Z,98729.69
2023-05-09T07:24:11.616Z,98726.84
2023-05-09T07:28:23.489Z,98719.47
2023-05-09T07:32:35.448Z,98709.34
2023-05-09T07:36:46.970Z,98708.44
2023-05-09T07:40:58.473Z,98705.00
2023-05-09T07:45:10.816Z,98693.25
2023-05-09T07:49:22.324Z,98691.81
2023-05-09T07:53:33.865Z,98683.44
2023-05-09T07:57:45.352Z,98678.47
2023-05-09T08:01:56.860Z,98684.94
2023-05-09T08:06:08.378Z,98684.66
2023-05-09T08:10:21.737Z,98682.00
2023-05-09T08:14:33.301Z,98670.81
2023-05-09T08:18:45.291Z,98664.38
2023-05-09T08:22:56.784Z,98654.44
2023-05-09T08:27:08.436Z,98658.41
2023-05-09T08:31:20.097Z,98651.59
2023-05-09T08:35:31.603Z,98650.56
2023-05-09T08:39:43.188Z,98648.19
2023-05-09T08:43:55.372Z,98645.19
2023-05-09T08:48:08.293Z,98637.44
2023-05-09T08:52:21.032Z,98628.41
2023-05-09T08:56:32.613Z,98613.91
2023-05-09T09:00:44.770Z,98615.56
2023-05-09T09:04:56.404Z,98604.09
2023-05-09T09:09:09.098Z,98607.06
2023-05-09T09:13:21.865Z,98592.13
2023-05-09T09:17:37.503Z,98588.56
2023-05-09T09:21:53.834Z,98575.25
2023-05-09T09:26:05.454Z,98570.25
2023-05-09T09:30:17.493Z,98568.50
2023-05-09T09:34:29.274Z,98562.38
2023-05-09T09:38:43.687Z,98549.34
2023-05-09T09:42:55.178Z,98551.28
2023-05-09T09:47:09.859Z,98541.25
2023-05-09T09:51:21.494Z,98527.09
2023-05-09T09:55:35.097Z,98522.53
2023-05-09T09:59:58.144Z,98519.09
2023-05-09T10:04:16.117Z,98510.03
2023-05-09T10:08:27.704Z,98506.63
2023-05-09T10:12:42.457Z,98504.59
2023-05-09T10:16:56.667Z,98497.03
2023-05-09T10:21:11.785Z,98487.38
2023-05-09T10:25:54.008Z,98487.00
2023-05-09T10:30:13.526Z,98476.84
2023-05-09T10:34:26.196Z,98467.81
2023-05-09T10:38:38.244Z,98460.75
2023-05-09T10:42:49.790Z,98457.59
2023-05-09T10:47:02.637Z,98449.13
2023-05-09T10:51:14.187Z,98438.59
2023-05-09T10:55:36.254Z,98429.66
2023-05-09T10:59:51.272Z,98422.63
2023-05-09T11:04:14.251Z,98413.25
2023-05-09T11:08:26.694Z,98402.13
2023-05-09T11:12:57.506Z,98400.56
2023-05-09T11:17:22.914Z,98388.47
2023-05-09T11:21:36.676Z,98385.28
2023-05-09T11:25:49.485Z,98380.50
2023-05-09T11:30:05.674Z,98369.19
2023-05-09T11:34:19.896Z,98365.69
2023-05-09T11:38:41.578Z,98357.66
2023-05-09T11:42:58.006Z,98351.00
2023-05-09T11:47:11.636Z,98342.25
2023-05-09T11:51:23.176Z,98328.47
2023-05-09T11:55:38.005Z,98319.84
2023-05-09T11:59:49.504Z,98312.53
2023-05-09T12:04:02.206Z,98306.25
2023-05-09T12:08:15.370Z,98296.72
2023-05-09T12:12:26.980Z,98301.47
2023-05-09T12:16:45.335Z,98283.50
2023-05-09T12:20:57.356Z,98279.97
2023-05-09T12:25:10.660Z,98268.06
2023-05-09T12:29:23.785Z,98269.13
2023-05-09T12:33:38.251Z,98251.41
2023-05-09T12:37:57.916Z,98254.19
2023-05-09T12:42:13.606Z,98235.34
2023-05-09T12:46:25.528Z,98245.13
2023-05-09T12:50:37.092Z,98230.41
2023-05-09T12:54:49.004Z,98231.00
2023-05-09T12:59:00.513Z,98234.97
2023-05-09T13:03:42.352Z,98233.38
2023-05-09T13:07:57.071Z,98219.97
2023-05-09T13:12:09.959Z,98214.69
2023-05-09T13:16:21.918Z,98214.47
2023-05-09T13:20:33.457Z,98200.28
2023-05-09T13:24:44.988Z,98197.47
2023-05-09T13:28:56.698Z,98197.03
2023-05-09T13:33:21.210Z,98186.81
2023-05-09T13:37:36.489Z,98181.50
2023-05-09T13:41:48.586Z,98176.88
2023-05-09T13:46:00.312Z,98182.06
2023-05-09T13:50:12.305Z,98166.66
2023-05-09T13:54:24.133Z,98166.34
2023-05-09T13:58:36.078Z,98158.34
2023-05-09T14:02:48.088Z,98159.03
2023-05-09T14:07:00.797Z,98159.66
2023-05-09T14:11:12.320Z,98158.72
2023-05-09T14:15:23.917Z,98148.03
2023-05-09T14:19:35.459Z,98150.63
2023-05-09T14:23:47.023Z,98141.25
2023-05-09T14:27:59.554Z,98148.13
2023-05-09T14:32:12.841Z,98147.88
2023-05-09T14:36:24.469Z,98148.84
2023-05-09T14:40:36.933Z,98148.81
2023-05-09T14:44:48.702Z,98147.84
2023-05-09T14:49:04.234Z,98150.06
2023-05-09T14:53:16.399Z,98156.25
2023-05-09T14:57:28.263Z,98159.00
2023-05-09T15:01:39.967Z,98154.47
2023-05-09T15:05:51.846Z,98147.25
2023-05-09T15:10:03.591Z,98149.56
2023-05-09T15:14:16.718Z,98158.47
2023-05-09T15:18:28.685Z,98153.56
2023-05-09T15:22:40.572Z,98151.50
2023-05-09T15:26:52.250Z,98141.41
2023-05-09T15:31:04.107Z,98139.19
2023-05-09T15:35:16.066Z,98144.72
2023-05-09T15:39:27.854Z,98157.56
2023-05-09T15:43:39.348Z,98146.25
2023-05-09T15:47:50.865Z,98142.47
2023-05-09T15:52:10.556Z,98153.78
2023-05-09T15:56:22.249Z,98159.69
2023-05-09T16:00:33.752Z,98168.72
2023-05-09T16:04:45.272Z,98148.94
2023-05-09T16:08:57.091Z,98140.69
2023-05-09T16:13:08.686Z,98125.75
2023-05-09T16:17:20.291Z,98126.19
2023-05-09T16:21:32.936Z,98123.78
2023-05-09T16:25:44.944Z,98113.47
2023-05-09T16:29:56.447Z,98115.22
2023-05-09T16:34:08.053Z,98107.97
2023-05-09T16:38:19.561Z,98107.97
2023-05-09T16:42:31.084Z,98095.97
2023-05-09T16:46:42.849Z,98092.22
2023-05-09T16:50:54.392Z,98089.91
2023-05-09T16:55:06.383Z,98081.84
2023-05-09T16:59:18.627Z,98091.53
2023-05-09T17:03:30.115Z,98095.03
2023-05-09T17:07:41.731Z,98098.97
2023-05-09T17:11:53.234Z,98092.34
2023-05-09T17:16:04.962Z,98093.22
2023-05-09T17:20:16.691Z,98085.38
2023-05-09T17:24:28.333Z,98088.25
2023-05-09T17:28:39.880Z,98084.13
2023-05-09T17:32:51.376Z,98074.03
2023-05-09T17:37:03.010Z,98075.97
2023-05-09T17:41:14.528Z,98076.22
2023-05-09T17:45:26.531Z,98071.75
2023-05-09T17:49:38.063Z,98068.50
2023-05-09T17:53:49.635Z,98064.94
2023-05-09T17:58:01.141Z,98059.25
2023-05-09T18:02:12.714Z,98055.09
2023-05-09T18:06:24.285Z,98051.75
2023-05-09T18:10:35.838Z,98044.66
2023-05-09T18:14:47.981Z,98044.28
2023-05-09T18:18:59.461Z,98044.84
2023-05-09T18:23:11.496Z,98032.13
2023-05-09T18:27:23.106Z,98028.28
2023-05-09T18:31:38.704Z,98031.81
2023-05-09T18:35:50.695Z,98023.69
2023-05-09T18:40:02.519Z,98036.22
2023-05-09T18:44:14.048Z,98055.09
2023-05-09T18:48:25.784Z,98049.06
2023-05-09T18:52:37.476Z,98053.63
2023-05-09T18:56:49.536Z,98056.06
2023-05-09T19:01:01.343Z,98058.94
2023-05-09T19:05:12.935Z,98062.53
2023-05-09T19:09:24.454Z,98065.75
2023-05-09T19:13:38.357Z,98063.78
2023-05-09T19:17:50.106Z,98066.63
2023-05-09T19:22:01.735Z,98076.81
2023-05-09T19:26:15.394Z,98071.97
2023-05-09T19:30:26.918Z,98077.25
2023-05-09T19:34:38.428Z,98085.91
2023-05-09T19:38:49.990Z,98080.91
2023-05-09T19:43:01.572Z,98092.19
2023-05-09T19:47:13.078Z,98096.66
2023-05-09T19:51:24.571Z,98101.88
2023-05-09T19:55:36.423Z,98110.81
2023-05-09T19:59:47.920Z,98105.56
2023-05-09T20:03:59.510Z,98113.91
2023-05-09T20:08:11.124Z,98108.47
2023-05-09T20:12:22.655Z,98108.91
2023-05-09T20:16:34.251Z,98108.28
2023-05-09T20:20:45.810Z,98111.91
2023-05-09T20:24:57.409Z,98109.09
2023-05-09T20:29:09.008Z,98101.44
2023-05-09T20:33:20.543Z,98116.81
2023-05-09T20:37:32.071Z,98114.19
2023-05-09T20:41:44.874Z,98108.50
2023-05-09T20:45:56.573Z,98114.16
2023-05-09T20:50:08.424Z,98107.31
2023-05-09T20:54:20.604Z,98121.22
2023-05-09T20:58:34.259Z,98123.06
2023-05-09T21:02:45.958Z,98127.91
2023-05-09T21:06:57.478Z,98125.09
2023-05-09T21:11:09.218Z,98132.94
2023-05-09T21:15:20.765Z,98133.16
2023-05-09T21:19:32.263Z,98136.19
2023-05-09T21:23:43.772Z,98133.16
2023-05-09T21:27:56.245Z,98137.19
